CA-0207 weather

CLOSED Liard River Airport
British Columbia, Canada

Public forecast

Using degrees Celsius for public forecast. Weather courtesy of forecast.io.

Closest aviation weather report (METAR) to Liard River Airport

Closest report is Watson Lake Airport, 82.4 nm (152.6 km) WNW. Retrieved 2019/10/14 19:00 UTC (54 minutes ago):

CYQH 141900Z 32004KT 280V340 30SM FEW035 OVC054 M01/M07 A3000 RMK SC1SC7 SLP198

Closest aviation forecast (TAF) to Liard River Airport

Closest forecast is Watson Lake Airport, 82.4 nm (152.6 km) WNW. Retrieved 2019/10/14 18:48 UTC (1 hour ago):

TAF CYQH 141747Z 1418/1506 30005KT P6SM BKN050 FM142200 VRB03KT P6SM SCT060 BECMG 1503/1505 10009KT RMK NXT FCST BY 150000Z